Time;durP1;ratioP1;P1;durP2;ratioP2;P2;SDS_P1;SDS_P2;PMS_P1;PMS_P2;Temp;Humidity;BMP_temperature;BMP_pressure;BME280_temperature;BME280_humidity;BME280_pressure;Samples;Min_cycle;Max_cycle;Signal;HPM_P1;HPM_P2
2024/01/11 00:00:09;;;;;;;40.60;27.60;;;-4.60;99.90;;;;;;5071513;28;20420;-67
2024/01/11 00:02:35;;;;;;;40.42;26.77;;;-4.70;99.90;;;;;;5069626;28;20044;-68
2024/01/11 00:05:02;;;;;;;40.10;28.58;;;-4.70;99.90;;;;;;5068485;28;20096;-68
2024/01/11 00:07:27;;;;;;;38.50;28.77;;;-4.60;99.90;;;;;;5072775;28;20036;-68
2024/01/11 00:09:53;;;;;;;42.75;29.67;;;-4.60;99.90;;;;;;5067505;28;20063;-68
2024/01/11 00:12:19;;;;;;;38.78;27.98;;;-4.60;99.90;;;;;;5070425;28;20047;-68
2024/01/11 00:14:45;;;;;;;43.80;29.80;;;-4.70;99.90;;;;;;5071524;28;20334;-67
2024/01/11 00:17:10;;;;;;;40.42;29.08;;;-4.70;99.90;;;;;;5069479;28;20040;-68
2024/01/11 00:19:36;;;;;;;41.28;29.23;;;-4.70;99.90;;;;;;5061142;28;20298;-68
2024/01/11 00:22:02;;;;;;;40.22;28.75;;;-4.50;99.90;;;;;;5063347;28;20055;-69
2024/01/11 00:24:28;;;;;;;42.80;28.60;;;-4.70;99.90;;;;;;5070924;28;20033;-68
2024/01/11 00:26:53;;;;;;;44.00;30.17;;;-4.70;99.90;;;;;;5069728;28;20040;-68
2024/01/11 00:29:19;;;;;;;43.35;30.05;;;-4.80;99.90;;;;;;5070654;28;20037;-76
2024/01/11 00:31:44;;;;;;;45.65;29.95;;;-4.80;99.90;;;;;;5070894;28;20032;-67
2024/01/11 00:34:10;;;;;;;43.15;30.30;;;-4.80;99.90;;;;;;5069729;28;20040;-67
2024/01/11 00:36:36;;;;;;;43.60;30.30;;;-4.80;99.90;;;;;;5069238;28;20406;-67
2024/01/11 00:39:02;;;;;;;44.08;30.00;;;-4.60;99.90;;;;;;5070895;28;20478;-72
2024/01/11 00:41:28;;;;;;;47.88;29.85;;;-4.70;99.90;;;;;;5069392;28;20062;-67
2024/01/11 00:43:53;;;;;;;44.75;29.67;;;-4.70;99.90;;;;;;5071009;28;20372;-67
2024/01/11 00:46:19;;;;;;;44.40;30.33;;;-4.80;99.90;;;;;;5070948;28;20468;-67
2024/01/11 00:48:45;;;;;;;43.75;29.58;;;-4.70;99.90;;;;;;5064026;28;20083;-68
2024/01/11 00:51:11;;;;;;;44.60;31.42;;;-4.80;99.90;;;;;;5066087;28;20044;-67
2024/01/11 00:53:36;;;;;;;48.72;31.88;;;-4.80;99.90;;;;;;5070250;28;20048;-67
2024/01/11 00:56:02;;;;;;;49.03;33.13;;;-4.80;99.90;;;;;;5075083;28;20097;-67
2024/01/11 00:58:28;;;;;;;45.28;29.42;;;-4.80;99.90;;;;;;5072380;28;20039;-68
2024/01/11 01:00:54;;;;;;;44.30;30.65;;;-4.80;99.90;;;;;;5074231;28;20044;-73
2024/01/11 01:03:21;;;;;;;47.30;30.55;;;-4.20;99.90;;;;;;5072535;28;20168;-68
2024/01/11 01:05:46;;;;;;;47.15;31.30;;;-4.70;99.90;;;;;;5073864;28;20048;-68
2024/01/11 01:08:12;;;;;;;48.65;32.28;;;-4.70;99.90;;;;;;5072852;28;20373;-68
2024/01/11 01:10:38;;;;;;;49.85;33.47;;;-4.50;99.90;;;;;;5073442;28;20539;-68
2024/01/11 01:13:04;;;;;;;50.30;33.67;;;-4.70;99.90;;;;;;5074488;28;20040;-67
2024/01/11 01:15:30;;;;;;;48.58;31.98;;;-4.60;99.90;;;;;;5079570;28;20033;-66
2024/01/11 01:17:55;;;;;;;47.72;31.80;;;-4.70;99.90;;;;;;5073038;28;20504;-67
2024/01/11 01:20:22;;;;;;;45.92;31.15;;;-4.60;99.90;;;;;;5072596;28;20435;-67
2024/01/11 01:22:49;;;;;;;45.67;30.17;;;-4.60;99.90;;;;;;5072062;28;20243;-67
2024/01/11 01:25:14;;;;;;;45.40;32.25;;;-4.70;99.90;;;;;;5062585;28;20493;-67
2024/01/11 01:27:40;;;;;;;46.85;30.08;;;-4.70;99.90;;;;;;5053930;28;20115;-71
2024/01/11 01:30:06;;;;;;;47.33;32.30;;;-4.70;99.90;;;;;;5059150;28;20045;-67
2024/01/11 01:32:32;;;;;;;46.88;32.38;;;-4.60;99.90;;;;;;5073314;28;20049;-68
2024/01/11 01:34:58;;;;;;;51.15;33.30;;;-4.70;99.90;;;;;;5060254;28;20076;-67
2024/01/11 01:37:24;;;;;;;46.35;31.17;;;-4.70;99.90;;;;;;5073844;28;20079;-67
2024/01/11 01:39:49;;;;;;;46.22;32.08;;;-4.70;99.90;;;;;;5071768;28;20047;-67
2024/01/11 01:42:15;;;;;;;47.75;31.50;;;-4.70;99.90;;;;;;5064248;28;20087;-67
2024/01/11 01:44:41;;;;;;;46.88;31.90;;;-4.70;99.90;;;;;;5067049;28;20041;-67
2024/01/11 01:47:09;;;;;;;50.67;32.65;;;-4.60;99.90;;;;;;5072228;28;20132;-67
2024/01/11 01:49:36;;;;;;;48.85;33.15;;;-4.70;99.90;;;;;;5072341;28;20044;-68
2024/01/11 01:52:03;;;;;;;48.05;31.85;;;-4.70;99.90;;;;;;5064016;28;20119;-67
2024/01/11 01:54:29;;;;;;;50.30;32.60;;;-4.70;99.90;;;;;;5073750;28;20064;-67
2024/01/11 01:56:55;;;;;;;50.10;33.83;;;-4.70;99.90;;;;;;5054615;28;20090;-67
2024/01/11 01:59:24;;;;;;;49.50;32.70;;;-4.20;99.90;;;;;;5065018;28;20116;-67
2024/01/11 02:01:50;;;;;;;48.15;31.13;;;-4.70;99.90;;;;;;5059847;28;20037;-67
2024/01/11 02:04:16;;;;;;;48.88;33.03;;;-4.30;99.90;;;;;;5072415;28;20047;-67
2024/01/11 02:06:44;;;;;;;50.33;33.00;;;-4.70;99.90;;;;;;5071619;28;20119;-67
2024/01/11 02:09:11;;;;;;;48.70;31.95;;;-4.70;99.90;;;;;;5071459;28;20473;-67
2024/01/11 02:11:39;;;;;;;52.80;34.10;;;-4.80;99.90;;;;;;5070022;28;20044;-71
2024/01/11 02:14:04;;;;;;;49.90;33.63;;;-4.70;99.90;;;;;;5071096;28;20032;-67
2024/01/11 02:16:30;;;;;;;50.47;33.78;;;-4.80;99.90;;;;;;5056056;28;20493;-67
2024/01/11 02:18:56;;;;;;;51.42;32.95;;;-4.70;99.90;;;;;;5072343;28;20040;-67
2024/01/11 02:21:23;;;;;;;49.22;31.08;;;-4.70;99.90;;;;;;5073041;28;20130;-70
2024/01/11 02:23:58;;;;;;;54.45;34.90;;;-4.70;99.90;;;;;;5071712;28;20051;-67
2024/01/11 02:26:24;;;;;;;48.85;33.75;;;-4.80;99.90;;;;;;5060310;28;20047;-66
2024/01/11 02:28:50;;;;;;;50.10;33.55;;;-4.80;99.90;;;;;;5069241;28;20108;-67
2024/01/11 02:31:16;;;;;;;50.22;32.50;;;-4.70;99.90;;;;;;5071383;28;20113;-67
2024/01/11 02:33:42;;;;;;;47.47;31.13;;;-4.70;99.90;;;;;;5070288;28;20422;-67
2024/01/11 02:36:08;;;;;;;48.92;32.45;;;-4.70;99.90;;;;;;5072867;28;20085;-67
2024/01/11 02:38:35;;;;;;;48.22;32.25;;;-4.70;99.90;;;;;;5072605;28;20040;-67
2024/01/11 02:41:01;;;;;;;45.30;30.20;;;-4.70;99.90;;;;;;5071553;28;20436;-67
2024/01/11 02:43:26;;;;;;;45.78;31.48;;;-4.80;99.90;;;;;;5071173;28;20037;-67
2024/01/11 02:45:56;;;;;;;48.08;32.13;;;-4.80;99.90;;;;;;5072245;28;20094;-67
2024/01/11 02:48:22;;;;;;;50.30;33.78;;;-4.80;99.90;;;;;;5072382;28;20490;-66
2024/01/11 02:50:48;;;;;;;52.42;32.85;;;-4.80;99.90;;;;;;5071770;28;20056;-67
2024/01/11 02:53:14;;;;;;;48.45;33.20;;;-4.80;99.90;;;;;;5072387;28;20037;-67
2024/01/11 02:55:40;;;;;;;51.13;32.45;;;-4.80;99.90;;;;;;5071929;28;20048;-67
2024/01/11 02:58:06;;;;;;;52.65;35.13;;;-4.80;99.90;;;;;;5053959;28;20048;-67
2024/01/11 03:00:31;;;;;;;49.90;33.40;;;-4.80;99.90;;;;;;5071853;28;20119;-67
2024/01/11 03:02:57;;;;;;;51.80;33.92;;;-4.80;99.90;;;;;;5070841;28;20040;-67
2024/01/11 03:05:23;;;;;;;52.95;34.58;;;-4.80;99.90;;;;;;5066779;28;20068;-67
2024/01/11 03:07:48;;;;;;;51.63;34.70;;;-4.80;99.90;;;;;;5050581;28;20533;-67
2024/01/11 03:10:14;;;;;;;51.72;34.33;;;-4.80;99.90;;;;;;5067125;28;20049;-67
2024/01/11 03:12:40;;;;;;;52.35;33.75;;;-4.90;99.90;;;;;;5072191;28;20040;-67
2024/01/11 03:15:06;;;;;;;51.70;33.25;;;-4.90;99.90;;;;;;5069611;28;20041;-67
2024/01/11 03:17:33;;;;;;;51.88;33.45;;;-4.80;99.90;;;;;;5070044;28;20040;-67
2024/01/11 03:19:59;;;;;;;51.00;33.15;;;-4.80;99.90;;;;;;5070916;28;20056;-67
2024/01/11 03:22:25;;;;;;;51.22;33.22;;;-4.80;99.90;;;;;;5033958;28;20453;-67
2024/01/11 03:24:51;;;;;;;51.72;33.92;;;-4.80;99.90;;;;;;5061527;28;20062;-68
2024/01/11 03:27:18;;;;;;;51.25;34.10;;;-4.80;99.90;;;;;;5037190;28;20044;-68
2024/01/11 03:29:43;;;;;;;52.03;34.53;;;-4.80;99.90;;;;;;5071677;28;20037;-67
2024/01/11 03:32:12;;;;;;;51.83;34.42;;;-4.80;99.90;;;;;;5070749;28;20044;-67
2024/01/11 03:34:38;;;;;;;56.58;36.72;;;-4.70;99.90;;;;;;5057385;28;20102;-67
2024/01/11 03:37:04;;;;;;;52.72;35.92;;;-4.70;99.90;;;;;;5049062;28;20072;-67
2024/01/11 03:39:29;;;;;;;54.60;37.35;;;-4.60;99.90;;;;;;5071128;28;20085;-66
2024/01/11 03:41:55;;;;;;;56.72;38.15;;;-4.60;99.90;;;;;;5069507;28;20048;-67
2024/01/11 03:44:21;;;;;;;53.45;35.30;;;-4.60;99.90;;;;;;5069605;28;20036;-67
2024/01/11 03:46:46;;;;;;;57.17;36.05;;;-4.50;99.90;;;;;;5069834;28;20037;-67
2024/01/11 03:49:12;;;;;;;54.58;36.15;;;-4.40;99.90;;;;;;5069785;28;20365;-67
2024/01/11 03:51:37;;;;;;;51.60;34.17;;;-4.50;99.90;;;;;;5071514;28;20041;-67
2024/01/11 03:54:03;;;;;;;54.92;34.95;;;-4.40;99.90;;;;;;5070925;28;20051;-67
2024/01/11 03:56:29;;;;;;;52.95;35.25;;;-4.40;99.90;;;;;;5068206;28;20051;-67
2024/01/11 03:58:55;;;;;;;54.08;36.47;;;-4.40;99.90;;;;;;5069075;28;20040;-67
2024/01/11 04:01:20;;;;;;;55.03;35.50;;;-4.40;99.90;;;;;;5070253;28;20104;-67
2024/01/11 04:03:46;;;;;;;52.97;34.90;;;-4.30;99.90;;;;;;5069828;28;20028;-67
2024/01/11 04:06:25;;;;;;;55.00;35.83;;;-4.30;99.90;;;;;;5070942;28;20080;-67
2024/01/11 04:08:50;;;;;;;54.72;36.88;;;-4.20;99.90;;;;;;5069224;28;20037;-67
2024/01/11 04:11:17;;;;;;;55.05;36.00;;;-4.20;99.90;;;;;;5070894;28;20048;-67
2024/01/11 04:13:43;;;;;;;56.00;36.38;;;-4.20;99.90;;;;;;5070993;28;20070;-67
2024/01/11 04:16:09;;;;;;;53.50;34.92;;;-4.10;99.90;;;;;;5070975;28;20040;-67
2024/01/11 04:18:35;;;;;;;53.50;35.03;;;-4.10;99.90;;;;;;5068068;28;20032;-68
2024/01/11 04:21:00;;;;;;;52.28;35.92;;;-4.10;99.90;;;;;;5064293;28;20048;-67
2024/01/11 04:23:26;;;;;;;51.13;33.72;;;-4.00;99.90;;;;;;5070938;28;20048;-67
2024/01/11 04:25:52;;;;;;;54.80;35.08;;;-4.00;99.90;;;;;;5070885;28;20040;-67
2024/01/11 04:28:18;;;;;;;49.90;34.28;;;-4.00;99.90;;;;;;5066699;28;20048;-67
2024/01/11 04:30:44;;;;;;;55.95;36.00;;;-3.90;99.90;;;;;;5068555;28;20040;-67
2024/01/11 04:33:10;;;;;;;51.38;35.22;;;-3.90;99.90;;;;;;5065014;28;20067;-68
2024/01/11 04:35:36;;;;;;;51.45;33.88;;;-3.80;99.90;;;;;;5065790;28;20474;-68
2024/01/11 04:38:02;;;;;;;53.88;34.85;;;-3.80;99.90;;;;;;5069102;28;20036;-68
2024/01/11 04:40:28;;;;;;;53.70;36.30;;;-3.70;99.90;;;;;;5069684;28;20047;-67
2024/01/11 04:42:53;;;;;;;57.38;36.22;;;-3.70;99.90;;;;;;5069904;28;20386;-67
2024/01/11 04:45:19;;;;;;;57.20;37.28;;;-3.80;99.90;;;;;;5070612;28;20553;-68
2024/01/11 04:47:45;;;;;;;54.25;35.03;;;-3.70;99.90;;;;;;5070491;28;20043;-67
2024/01/11 04:50:11;;;;;;;59.88;37.22;;;-2.90;99.90;;;;;;5061705;28;20068;-67
2024/01/11 04:52:36;;;;;;;56.17;38.10;;;-3.70;99.90;;;;;;5071304;28;20044;-67
2024/01/11 04:55:02;;;;;;;58.80;38.10;;;-3.70;99.90;;;;;;5069081;28;20075;-68
2024/01/11 04:57:28;;;;;;;57.28;37.97;;;-3.70;99.90;;;;;;5071065;28;20068;-67
2024/01/11 04:59:54;;;;;;;55.58;35.97;;;-3.70;99.90;;;;;;5067626;28;21033;-67
2024/01/11 05:02:22;;;;;;;55.80;37.28;;;-3.60;99.90;;;;;;5095885;28;20583;-67
2024/01/11 05:04:48;;;;;;;59.78;38.75;;;-3.60;99.90;;;;;;5064015;28;20056;-71
2024/01/11 05:07:14;;;;;;;59.40;37.67;;;-3.50;99.90;;;;;;5070337;28;20040;-67
2024/01/11 05:09:40;;;;;;;56.58;37.20;;;-3.50;99.90;;;;;;5067878;28;20047;-67
2024/01/11 05:12:06;;;;;;;60.78;38.95;;;-3.50;99.90;;;;;;5069759;28;20411;-67
2024/01/11 05:14:32;;;;;;;55.08;37.25;;;-3.40;99.90;;;;;;5071195;28;20560;-67
2024/01/11 05:16:58;;;;;;;57.45;37.65;;;-3.40;99.90;;;;;;5068015;28;20119;-67
2024/01/11 05:19:24;;;;;;;58.38;37.75;;;-3.40;99.90;;;;;;5053415;28;20632;-65
2024/01/11 05:21:49;;;;;;;55.50;36.65;;;-3.30;99.90;;;;;;5063855;28;20055;-68
2024/01/11 05:24:15;;;;;;;57.00;36.75;;;-3.30;99.90;;;;;;5038933;28;20041;-67
2024/01/11 05:26:40;;;;;;;59.90;37.75;;;-3.30;99.90;;;;;;5049426;28;20044;-67
2024/01/11 05:29:06;;;;;;;60.67;38.67;;;-3.20;99.90;;;;;;5058090;28;20119;-75
2024/01/11 05:31:32;;;;;;;57.13;35.55;;;-2.50;99.90;;;;;;5056672;28;20032;-68
2024/01/11 05:33:57;;;;;;;57.08;37.53;;;-3.10;99.90;;;;;;5065839;28;20037;-67
2024/01/11 05:36:23;;;;;;;55.80;36.28;;;-2.90;99.90;;;;;;5070006;28;20040;-67
2024/01/11 05:38:49;;;;;;;56.72;35.85;;;-3.10;99.90;;;;;;5069151;28;20132;-68
2024/01/11 05:41:15;;;;;;;55.47;36.55;;;-2.50;99.90;;;;;;5069464;28;20045;-68
2024/01/11 05:43:42;;;;;;;57.90;37.03;;;-3.00;99.90;;;;;;5068655;28;20390;-68
2024/01/11 05:46:08;;;;;;;54.97;36.22;;;-3.00;99.90;;;;;;5068148;28;20090;-76
2024/01/11 05:48:33;;;;;;;50.90;34.97;;;-2.90;99.90;;;;;;5072361;28;20040;-68
2024/01/11 05:50:59;;;;;;;52.60;35.15;;;-2.80;99.90;;;;;;5073953;28;20044;-70
2024/01/11 05:53:27;;;;;;;53.67;36.15;;;-2.80;99.90;;;;;;5071397;28;20496;-68
2024/01/11 05:55:53;;;;;;;53.85;35.80;;;-2.80;99.90;;;;;;5072595;28;20045;-68
2024/01/11 05:58:19;;;;;;;51.38;33.88;;;-2.70;99.90;;;;;;5072519;28;20040;-68
2024/01/11 06:00:45;;;;;;;50.88;34.38;;;-2.70;99.90;;;;;;5072668;28;20466;-68
2024/01/11 06:03:15;;;;;;;54.58;35.17;;;-2.70;99.90;;;;;;5071194;28;20080;-76
2024/01/11 06:05:40;;;;;;;53.80;34.88;;;-2.60;99.90;;;;;;5074055;28;20048;-68
2024/01/11 06:08:07;;;;;;;49.38;32.63;;;-2.60;99.90;;;;;;5073625;28;20044;-68
2024/01/11 06:10:33;;;;;;;51.40;33.50;;;-2.60;99.90;;;;;;5073051;28;20429;-68
2024/01/11 06:12:58;;;;;;;54.22;35.72;;;-2.60;99.90;;;;;;5064290;28;20040;-68
2024/01/11 06:15:24;;;;;;;52.83;35.17;;;-2.50;99.90;;;;;;5068448;28;20052;-69
2024/01/11 06:17:50;;;;;;;54.53;35.17;;;-2.50;99.90;;;;;;5060298;28;20039;-66
2024/01/11 06:20:16;;;;;;;50.95;33.13;;;-2.50;99.90;;;;;;5056260;28;20049;-67
2024/01/11 06:22:41;;;;;;;49.55;32.50;;;-2.50;99.90;;;;;;5053330;28;20041;-69
2024/01/11 06:25:07;;;;;;;56.03;34.78;;;-2.20;99.90;;;;;;5053934;28;20378;-67
2024/01/11 06:27:33;;;;;;;48.28;31.95;;;-2.40;99.90;;;;;;5058217;28;20045;-67
2024/01/11 06:29:59;;;;;;;48.97;32.78;;;-2.30;99.90;;;;;;5053967;28;20047;-67
2024/01/11 06:32:24;;;;;;;47.97;31.65;;;-2.30;99.90;;;;;;5051081;28;20455;-67
2024/01/11 06:34:51;;;;;;;47.78;29.63;;;-1.70;99.90;;;;;;5062363;28;20047;-67
2024/01/11 06:37:17;;;;;;;48.03;32.35;;;-2.30;99.90;;;;;;5072364;28;20048;-74
2024/01/11 06:39:42;;;;;;;47.45;31.08;;;-2.30;99.90;;;;;;5072546;28;20047;-67
2024/01/11 06:42:08;;;;;;;47.55;31.17;;;-2.20;99.90;;;;;;5072783;28;20044;-67
2024/01/11 06:44:34;;;;;;;48.85;30.15;;;-2.30;99.90;;;;;;5060902;28;20044;-67
2024/01/11 06:47:01;;;;;;;47.72;30.33;;;-1.70;99.90;;;;;;5052392;28;20036;-67
2024/01/11 06:49:27;;;;;;;42.85;29.30;;;-2.10;99.90;;;;;;5066068;28;20044;-68
2024/01/11 06:51:53;;;;;;;43.95;28.77;;;-2.10;99.90;;;;;;5018806;28;20041;-68
2024/01/11 06:54:18;;;;;;;46.03;30.00;;;-2.10;99.90;;;;;;5052465;28;20040;-76
2024/01/11 06:56:44;;;;;;;43.92;29.55;;;-1.80;99.90;;;;;;5067181;28;20115;-68
2024/01/11 06:59:10;;;;;;;45.72;30.58;;;-2.00;99.90;;;;;;5059074;28;20033;-68
2024/01/11 07:01:35;;;;;;;45.90;30.52;;;-2.00;99.90;;;;;;5052033;28;20044;-67
2024/01/11 07:04:01;;;;;;;43.90;29.50;;;-2.00;99.90;;;;;;5052213;28;20041;-68
2024/01/11 07:06:27;;;;;;;45.20;30.08;;;-2.00;99.90;;;;;;5054431;28;20087;-68
2024/01/11 07:08:53;;;;;;;46.45;30.65;;;-1.50;99.90;;;;;;5054834;28;20470;-67
2024/01/11 07:11:18;;;;;;;45.85;30.05;;;-1.90;99.90;;;;;;5052430;28;20041;-67
2024/01/11 07:13:44;;;;;;;45.17;28.83;;;-1.40;99.90;;;;;;5050740;28;20040;-67
2024/01/11 07:16:10;;;;;;;43.90;29.52;;;-1.90;99.90;;;;;;5056879;28;20369;-72
2024/01/11 07:18:36;;;;;;;45.95;29.48;;;-1.70;99.90;;;;;;5055712;28;20075;-68
2024/01/11 07:21:01;;;;;;;43.75;28.55;;;-1.90;99.90;;;;;;5051709;28;20136;-68
2024/01/11 07:23:27;;;;;;;47.05;30.55;;;-1.80;99.90;;;;;;5051755;28;20087;-71
2024/01/11 07:25:53;;;;;;;45.80;28.98;;;-1.40;99.90;;;;;;5067921;28;20428;-68
2024/01/11 07:28:19;;;;;;;44.38;29.65;;;-1.70;99.90;;;;;;5056023;28;20044;-67
2024/01/11 07:30:46;;;;;;;46.15;29.98;;;-1.30;99.90;;;;;;5051509;28;20049;-67
2024/01/11 07:33:12;;;;;;;47.50;31.08;;;-1.20;99.90;;;;;;5052206;28;20049;-66
2024/01/11 07:35:37;;;;;;;52.58;31.70;;;-1.70;99.90;;;;;;5096800;28;20118;-67
2024/01/11 07:38:04;;;;;;;49.75;32.55;;;-0.90;99.90;;;;;;5070818;28;20115;-67
2024/01/11 07:40:29;;;;;;;44.95;30.63;;;-1.70;99.90;;;;;;5070224;28;20044;-67
2024/01/11 07:42:55;;;;;;;46.92;30.92;;;-1.60;99.90;;;;;;5071494;28;20084;-66
2024/01/11 07:45:21;;;;;;;47.33;31.20;;;-1.60;99.90;;;;;;5069674;28;20127;-67
2024/01/11 07:47:47;;;;;;;50.03;31.88;;;-1.60;99.90;;;;;;5068370;28;20043;-70
2024/01/11 07:50:12;;;;;;;46.97;31.98;;;-1.60;99.90;;;;;;5060423;28;20048;-68
2024/01/11 07:52:41;;;;;;;46.80;31.40;;;-1.50;99.90;;;;;;5051190;28;20064;-65
2024/01/11 07:55:07;;;;;;;47.78;31.50;;;-1.50;99.90;;;;;;5053991;28;20401;-67
2024/01/11 07:57:37;;;;;;;50.45;32.08;;;-1.50;99.90;;;;;;5068320;28;20028;-66
2024/01/11 08:00:07;;;;;;;47.90;31.52;;;-1.50;99.90;;;;;;5058454;28;20056;-67
2024/01/11 08:02:33;;;;;;;49.17;31.88;;;-1.50;99.90;;;;;;5063634;28;20059;-66
2024/01/11 08:05:02;;;;;;;46.78;31.33;;;-1.40;99.90;;;;;;5058891;28;20049;-66
2024/01/11 08:07:28;;;;;;;45.83;30.17;;;-1.40;99.90;;;;;;5059710;28;20490;-68
2024/01/11 08:09:55;;;;;;;50.38;30.75;;;-1.40;99.90;;;;;;5054371;28;20128;-71
2024/01/11 08:12:20;;;;;;;46.13;29.45;;;-1.40;99.90;;;;;;5056784;28;20036;-71
2024/01/11 08:14:46;;;;;;;47.33;30.65;;;-1.10;99.90;;;;;;5051328;28;20049;-67
2024/01/11 08:17:13;;;;;;;46.28;31.30;;;-1.30;99.90;;;;;;5057692;28;20083;-68
2024/01/11 08:19:40;;;;;;;44.58;28.92;;;-1.30;99.90;;;;;;5059609;28;20374;-65
2024/01/11 08:22:06;;;;;;;46.25;30.77;;;-1.20;99.90;;;;;;5060965;28;20045;-67
2024/01/11 08:24:32;;;;;;;46.75;30.60;;;-1.20;99.90;;;;;;5050391;28;20099;-74
2024/01/11 08:26:58;;;;;;;45.15;29.15;;;-1.20;99.90;;;;;;5055973;28;20074;-68
2024/01/11 08:29:23;;;;;;;47.63;30.98;;;-1.20;99.90;;;;;;5060741;28;20036;-70
2024/01/11 08:31:50;;;;;;;44.55;28.75;;;-1.20;99.90;;;;;;5057120;28;20041;-67
2024/01/11 08:34:15;;;;;;;47.75;29.88;;;-1.10;99.90;;;;;;5045625;28;20041;-67
2024/01/11 08:36:41;;;;;;;47.00;30.63;;;-1.20;99.90;;;;;;5061696;28;20037;-68
2024/01/11 08:39:07;;;;;;;46.88;29.63;;;-1.00;99.90;;;;;;5049336;28;20037;-67
2024/01/11 08:41:35;;;;;;;45.22;30.33;;;-1.10;99.90;;;;;;5064282;28;20040;-67
2024/01/11 08:44:02;;;;;;;48.00;29.55;;;-0.40;99.90;;;;;;5060700;28;20041;-67
2024/01/11 08:46:30;;;;;;;47.25;30.35;;;-1.00;99.90;;;;;;5061954;28;20474;-66
2024/01/11 08:48:56;;;;;;;46.92;30.00;;;-1.00;99.90;;;;;;5060722;28;20056;-67
2024/01/11 08:51:22;;;;;;;48.03;30.60;;;-1.00;99.90;;;;;;5060298;28;20466;-67
2024/01/11 08:53:48;;;;;;;49.55;31.45;;;-1.00;99.90;;;;;;5061036;28;20028;-67
2024/01/11 08:56:16;;;;;;;46.45;30.73;;;-0.90;99.90;;;;;;5055024;28;20052;-67
2024/01/11 08:58:41;;;;;;;46.20;30.45;;;-0.80;99.90;;;;;;5058864;28;20046;-68
2024/01/11 09:01:08;;;;;;;47.17;31.77;;;-0.20;99.90;;;;;;5058495;28;20098;-66
2024/01/11 09:03:35;;;;;;;49.22;31.25;;;-0.80;99.90;;;;;;5053022;28;20128;-67
2024/01/11 09:06:02;;;;;;;48.42;31.30;;;-0.70;99.90;;;;;;5053295;28;20053;-66
2024/01/11 09:08:28;;;;;;;48.40;31.77;;;-0.70;99.90;;;;;;5052092;28;20079;-66
2024/01/11 09:10:53;;;;;;;45.05;30.38;;;0.00;99.90;;;;;;5058124;28;20068;-66
2024/01/11 09:13:19;;;;;;;42.83;29.10;;;-0.60;99.90;;;;;;5051123;28;20603;-66
2024/01/11 09:15:45;;;;;;;44.03;30.50;;;-0.60;99.90;;;;;;5055493;28;20471;-66
2024/01/11 09:18:11;;;;;;;44.45;30.10;;;-0.60;99.90;;;;;;5068896;28;20047;-66
2024/01/11 09:20:37;;;;;;;46.60;29.73;;;-0.60;99.90;;;;;;5061583;28;20041;-67
2024/01/11 09:23:03;;;;;;;42.95;29.45;;;-0.60;99.90;;;;;;5056290;28;20059;-70
2024/01/11 09:25:32;;;;;;;41.40;29.33;;;-0.60;99.90;;;;;;5068594;28;20033;-67
2024/01/11 09:27:58;;;;;;;45.22;30.65;;;-0.50;99.90;;;;;;5054567;28;20041;-67
2024/01/11 09:30:24;;;;;;;43.15;29.85;;;-0.40;99.90;;;;;;5068472;28;20040;-67
2024/01/11 09:32:49;;;;;;;45.22;30.20;;;-0.40;99.90;;;;;;5067198;28;20561;-66
2024/01/11 09:35:15;;;;;;;42.90;29.75;;;-0.40;99.90;;;;;;5058933;28;20032;-66
2024/01/11 09:37:42;;;;;;;41.80;28.58;;;-0.30;99.90;;;;;;5063739;28;20383;-75
2024/01/11 09:40:10;;;;;;;44.67;28.60;;;-0.30;99.90;;;;;;5063698;28;20045;-66
2024/01/11 09:42:39;;;;;;;42.20;29.52;;;-0.30;99.90;;;;;;5060001;28;20109;-66
2024/01/11 09:45:09;;;;;;;41.78;28.80;;;-0.20;99.90;;;;;;5061387;28;20375;-66
2024/01/11 09:47:36;;;;;;;40.95;27.02;;;-0.30;99.90;;;;;;5061665;28;20068;-68
2024/01/11 09:50:03;;;;;;;41.47;28.08;;;-0.20;99.90;;;;;;5057519;28;20071;-66
2024/01/11 09:52:31;;;;;;;38.75;27.23;;;-0.20;99.90;;;;;;5060532;28;20049;-66
2024/01/11 09:54:58;;;;;;;40.47;27.58;;;-0.10;99.90;;;;;;5069342;28;20394;-67
2024/01/11 09:57:32;;;;;;;38.88;27.60;;;-0.10;99.90;;;;;;5060276;28;20127;-66
2024/01/11 09:59:58;;;;;;;38.92;26.05;;;-0.10;99.90;;;;;;5061799;28;20040;-67
2024/01/11 10:02:26;;;;;;;38.17;26.10;;;0.00;99.90;;;;;;5065543;28;20135;-66
2024/01/11 10:04:52;;;;;;;39.53;25.92;;;0.00;99.90;;;;;;5060968;28;20120;-68
2024/01/11 10:07:21;;;;;;;37.65;26.20;;;0.50;99.90;;;;;;5059361;28;20386;-66
2024/01/11 10:09:47;;;;;;;38.72;26.17;;;0.00;99.90;;;;;;5059934;28;20394;-69
2024/01/11 10:12:13;;;;;;;39.72;25.73;;;0.00;99.90;;;;;;5062759;28;20468;-66
2024/01/11 10:14:42;;;;;;;39.67;26.27;;;0.40;99.90;;;;;;5059451;28;20039;-72
2024/01/11 10:17:08;;;;;;;36.97;25.63;;;0.10;99.90;;;;;;5062204;28;20136;-75
2024/01/11 10:19:33;;;;;;;38.95;26.45;;;0.40;99.90;;;;;;5035171;28;20383;-67
2024/01/11 10:21:59;;;;;;;34.53;23.63;;;0.10;99.90;;;;;;5064076;28;20110;-65
2024/01/11 10:24:28;;;;;;;38.03;25.02;;;0.20;99.90;;;;;;5069687;28;20086;-67
2024/01/11 10:26:58;;;;;;;35.45;25.38;;;0.20;99.90;;;;;;5054926;28;20119;-68
2024/01/11 10:29:30;;;;;;;37.33;25.48;;;0.80;99.90;;;;;;5065829;28;20055;-68
2024/01/11 10:31:56;;;;;;;36.35;24.80;;;0.50;99.90;;;;;;5067985;28;20036;-68
2024/01/11 10:34:23;;;;;;;35.72;24.25;;;0.30;99.90;;;;;;5059498;28;20118;-68
2024/01/11 10:36:53;;;;;;;33.97;22.85;;;1.00;99.90;;;;;;5060085;28;20040;-74
2024/01/11 10:39:27;;;;;;;34.55;24.20;;;0.30;99.90;;;;;;5049191;28;20037;-68
2024/01/11 10:42:05;;;;;;;33.55;23.25;;;0.30;99.90;;;;;;5058021;28;20557;-68
2024/01/11 10:44:34;;;;;;;34.08;22.98;;;0.30;99.90;;;;;;5057412;28;20059;-68
2024/01/11 10:47:03;;;;;;;40.25;25.27;;;0.40;99.90;;;;;;5050409;28;20501;-70
2024/01/11 10:49:31;;;;;;;36.83;25.30;;;0.40;99.90;;;;;;5068925;28;20129;-66
2024/01/11 10:52:03;;;;;;;36.53;24.85;;;0.40;99.90;;;;;;5052086;28;20202;-68
2024/01/11 10:54:30;;;;;;;33.03;23.25;;;0.40;99.90;;;;;;5053799;28;20089;-67
2024/01/11 10:57:03;;;;;;;38.88;25.10;;;0.50;99.90;;;;;;5086430;28;20058;-67
2024/01/11 10:59:30;;;;;;;36.97;24.50;;;0.50;99.90;;;;;;5072849;28;20485;-67
2024/01/11 11:02:00;;;;;;;37.63;24.30;;;1.20;99.90;;;;;;5071156;28;20093;-67
2024/01/11 11:04:27;;;;;;;36.25;24.70;;;0.50;99.90;;;;;;5063013;28;20462;-67
2024/01/11 11:06:57;;;;;;;36.72;24.55;;;0.50;99.90;;;;;;5064058;28;20106;-73
2024/01/11 11:09:23;;;;;;;34.50;24.33;;;0.60;99.90;;;;;;5052160;28;20072;-67
2024/01/11 11:11:49;;;;;;;34.45;22.55;;;0.60;99.90;;;;;;5058033;28;20383;-67
2024/01/11 11:14:15;;;;;;;33.10;22.00;;;0.50;99.90;;;;;;5052197;28;20529;-68
2024/01/11 11:16:42;;;;;;;33.05;21.73;;;0.60;99.90;;;;;;5066135;28;20040;-68
2024/01/11 11:19:08;;;;;;;34.70;21.85;;;0.70;99.90;;;;;;5053429;28;20044;-68
2024/01/11 11:21:43;;;;;;;35.47;22.88;;;0.60;99.90;;;;;;5055948;28;20390;-67
2024/01/11 11:24:10;;;;;;;33.90;23.10;;;0.70;99.90;;;;;;5057654;28;20135;-67
2024/01/11 11:26:36;;;;;;;35.25;21.92;;;0.70;99.90;;;;;;5057136;28;20032;-67
2024/01/11 11:29:04;;;;;;;33.15;22.17;;;1.00;99.90;;;;;;5084337;28;20139;-67
2024/01/11 11:31:45;;;;;;;39.80;22.08;;;0.90;99.90;;;;;;5053332;28;20505;-66
2024/01/11 11:34:12;;;;;;;36.75;22.83;;;0.80;99.90;;;;;;5040008;28;20049;-67
2024/01/11 11:36:40;;;;;;;36.00;23.17;;;0.90;99.90;;;;;;5056794;28;20037;-66
2024/01/11 11:39:06;;;;;;;37.17;23.23;;;0.80;99.90;;;;;;5064382;28;20040;-67
2024/01/11 11:41:32;;;;;;;33.92;21.92;;;1.10;99.90;;;;;;5071954;28;20051;-69
2024/01/11 11:44:02;;;;;;;32.72;21.70;;;0.90;99.90;;;;;;5068392;28;20048;-69
2024/01/11 11:46:29;;;;;;;34.17;23.33;;;1.60;99.90;;;;;;5073261;28;20115;-67
2024/01/11 11:48:55;;;;;;;36.28;21.90;;;1.00;99.90;;;;;;5067039;28;20063;-65
2024/01/11 11:51:23;;;;;;;33.10;22.10;;;1.50;99.90;;;;;;5072608;28;20032;-67
2024/01/11 11:53:49;;;;;;;30.88;20.02;;;1.00;99.90;;;;;;5070511;28;20115;-67
2024/01/11 11:56:23;;;;;;;29.65;19.52;;;1.00;99.90;;;;;;5069906;28;20044;-68
2024/01/11 11:58:52;;;;;;;32.83;21.27;;;1.00;99.90;;;;;;5067460;28;20069;-67
2024/01/11 12:01:18;;;;;;;32.70;20.48;;;1.00;99.90;;;;;;5070303;28;20159;-67
2024/01/11 12:03:51;;;;;;;35.83;19.95;;;1.10;99.90;;;;;;5070610;28;20032;-67
2024/01/11 12:06:18;;;;;;;33.97;22.20;;;1.10;99.90;;;;;;5070249;28;20048;-67
2024/01/11 12:08:45;;;;;;;38.22;21.58;;;1.10;99.90;;;;;;5066782;28;20424;-68
2024/01/11 12:11:21;;;;;;;35.28;21.67;;;1.10;99.90;;;;;;5069534;28;20110;-68
2024/01/11 12:13:48;;;;;;;31.33;20.63;;;1.50;99.90;;;;;;5071488;28;20052;-68
2024/01/11 12:16:14;;;;;;;37.00;21.25;;;1.20;99.90;;;;;;5069039;28;20044;-68
2024/01/11 12:18:41;;;;;;;33.13;21.52;;;1.10;99.90;;;;;;5071235;28;20042;-68
2024/01/11 12:21:07;;;;;;;31.52;21.02;;;1.80;99.90;;;;;;5059172;28;20060;-77
2024/01/11 12:23:34;;;;;;;34.97;21.90;;;1.30;99.90;;;;;;5072441;28;20040;-70